createdAt,value
2023-05-02T00:01:14.282Z,21.25
2023-05-02T00:03:42.554Z,21.02
2023-05-02T00:06:09.737Z,20.98
2023-05-02T00:08:36.559Z,20.87
2023-05-02T00:11:03.273Z,20.91
2023-05-02T00:13:29.783Z,20.67
2023-05-02T00:15:56.334Z,20.76
2023-05-02T00:18:24.084Z,20.68
2023-05-02T00:20:50.866Z,20.66
2023-05-02T00:23:17.420Z,20.58
2023-05-02T00:25:45.713Z,20.54
2023-05-02T00:28:13.660Z,20.54
2023-05-02T00:30:46.833Z,20.43
2023-05-02T00:33:15.007Z,20.34
2023-05-02T00:35:42.001Z,20.45
2023-05-02T00:38:08.994Z,20.53
2023-05-02T00:40:48.825Z,20.48
2023-05-02T00:43:16.099Z,20.21
2023-05-02T00:45:44.108Z,20.32
2023-05-02T00:48:11.302Z,20.30
2023-05-02T00:50:43.292Z,20.40
2023-05-02T00:53:10.901Z,20.41
2023-05-02T00:55:38.432Z,20.49
2023-05-02T00:58:11.875Z,20.41
2023-05-02T01:01:00.709Z,20.55
2023-05-02T01:03:39.633Z,20.44
2023-05-02T01:06:37.396Z,20.45
2023-05-02T01:09:23.919Z,20.41
2023-05-02T01:12:04.533Z,20.43
2023-05-02T01:14:35.186Z,20.42
2023-05-02T01:17:08.136Z,20.52
2023-05-02T01:19:47.903Z,20.37
2023-05-02T01:22:16.233Z,20.37
2023-05-02T01:25:07.485Z,20.21
2023-05-02T01:27:43.406Z,20.17
2023-05-02T01:30:12.736Z,20.12
2023-05-02T01:32:41.589Z,20.04
2023-05-02T01:35:10.589Z,20.06
2023-05-02T01:37:38.367Z,20.01
2023-05-02T01:40:07.684Z,20.02
2023-05-02T01:42:37.285Z,20.01
2023-05-02T01:45:05.952Z,20.09
2023-05-02T01:47:36.025Z,20.25
2023-05-02T01:50:06.786Z,20.36
2023-05-02T01:52:34.275Z,20.53
2023-05-02T01:55:01.239Z,20.41
2023-05-02T01:57:27.843Z,20.51
2023-05-02T01:59:58.853Z,20.51
2023-05-02T02:02:27.839Z,20.59
2023-05-02T02:04:56.118Z,20.57
2023-05-02T02:07:23.114Z,20.66
2023-05-02T02:09:49.813Z,20.78
2023-05-02T02:12:56.390Z,20.65
2023-05-02T02:15:28.951Z,20.65
2023-05-02T02:18:00.398Z,20.61
2023-05-02T02:20:29.383Z,20.85
2023-05-02T02:22:57.861Z,20.77
2023-05-02T02:25:26.896Z,20.71
2023-05-02T02:27:53.804Z,20.77
2023-05-02T02:30:20.912Z,20.57
2023-05-02T02:32:47.433Z,20.59
2023-05-02T02:35:14.124Z,20.50
2023-05-02T02:38:22.476Z,20.47
2023-05-02T02:41:00.037Z,20.52
2023-05-02T02:43:47.981Z,20.61
2023-05-02T02:46:33.283Z,20.75
2023-05-02T02:49:13.269Z,20.72
2023-05-02T02:51:46.886Z,20.66
2023-05-02T02:54:27.011Z,20.82
2023-05-02T02:57:24.437Z,20.66
2023-05-02T03:00:15.928Z,20.72
2023-05-02T03:02:44.709Z,20.76
2023-05-02T03:05:12.042Z,21.10
2023-05-02T03:07:38.748Z,21.17
2023-05-02T03:10:06.859Z,21.11
2023-05-02T03:12:34.908Z,21.18
2023-05-02T03:15:27.737Z,21.28
2023-05-02T03:17:54.287Z,21.28
2023-05-02T03:20:21.044Z,21.57
2023-05-02T03:22:47.882Z,21.26
2023-05-02T03:25:14.687Z,21.28
2023-05-02T03:27:45.836Z,21.19
2023-05-02T03:30:12.980Z,21.36
2023-05-02T03:32:39.601Z,21.71
2023-05-02T03:35:06.781Z,21.66
2023-05-02T03:37:38.450Z,21.51
2023-05-02T03:40:05.666Z,21.64
2023-05-02T03:42:39.884Z,21.26
2023-05-02T03:45:11.230Z,21.08
2023-05-02T03:47:37.984Z,21.03
2023-05-02T03:50:04.935Z,20.94
2023-05-02T03:52:33.828Z,20.79
2023-05-02T03:55:01.636Z,20.51
2023-05-02T03:57:32.318Z,20.27
2023-05-02T04:00:00.534Z,20.25
2023-05-02T04:02:38.439Z,19.86
2023-05-02T04:05:08.665Z,19.62
2023-05-02T04:07:36.524Z,19.53
2023-05-02T04:10:06.870Z,19.49
2023-05-02T04:12:38.487Z,19.42
2023-05-02T04:15:05.736Z,19.54
2023-05-02T04:17:32.347Z,19.64
2023-05-02T04:19:59.570Z,19.52
2023-05-02T04:22:29.084Z,19.58
2023-05-02T04:24:59.868Z,19.71
2023-05-02T04:27:27.425Z,19.52
2023-05-02T04:29:54.114Z,19.43
2023-05-02T04:32:21.247Z,19.33
2023-05-02T04:34:48.631Z,19.29
2023-05-02T04:37:16.306Z,19.33
2023-05-02T04:39:45.293Z,19.16
2023-05-02T04:42:17.272Z,19.09
2023-05-02T04:45:01.817Z,18.94
2023-05-02T04:47:28.727Z,19.15
2023-05-02T04:49:55.346Z,19.12
2023-05-02T04:52:21.948Z,19.10
2023-05-02T04:54:48.595Z,19.06
2023-05-02T04:57:15.621Z,18.95
2023-05-02T04:59:46.583Z,18.86
2023-05-02T05:02:13.353Z,19.04
2023-05-02T05:04:40.563Z,18.94
2023-05-02T05:07:07.225Z,18.86
2023-05-02T05:09:33.955Z,18.62
2023-05-02T05:12:01.803Z,18.56
2023-05-02T05:14:31.246Z,18.74
2023-05-02T05:16:58.464Z,18.72
2023-05-02T05:19:26.153Z,19.04
2023-05-02T05:21:53.106Z,18.90
2023-05-02T05:24:21.136Z,18.77
2023-05-02T05:26:48.829Z,19.00
2023-05-02T05:29:15.653Z,19.14
2023-05-02T05:31:43.827Z,19.16
2023-05-02T05:34:14.204Z,19.17
2023-05-02T05:36:42.244Z,19.26
2023-05-02T05:39:08.970Z,18.94
2023-05-02T05:41:38.157Z,18.91
2023-05-02T05:44:07.586Z,19.17
2023-05-02T05:46:34.395Z,19.16
2023-05-02T05:49:02.352Z,19.07
2023-05-02T05:51:29.980Z,19.11
2023-05-02T05:53:59.018Z,19.13
2023-05-02T05:56:26.289Z,19.27
2023-05-02T05:58:59.312Z,19.38
2023-05-02T06:01:26.159Z,19.40
2023-05-02T06:03:52.761Z,19.33
2023-05-02T06:06:19.368Z,19.27
2023-05-02T06:08:46.562Z,19.43
2023-05-02T06:11:13.581Z,19.26
2023-05-02T06:16:08.248Z,19.32
2023-05-02T06:18:35.150Z,19.02
2023-05-02T06:21:05.626Z,19.08
2023-05-02T06:23:33.303Z,18.91
2023-05-02T06:26:01.238Z,19.03
2023-05-02T06:28:28.268Z,19.05
2023-05-02T06:31:02.902Z,18.89
2023-05-02T06:33:30.497Z,18.87
2023-05-02T06:35:59.088Z,18.78
2023-05-02T06:38:26.700Z,18.77
2023-05-02T06:40:53.280Z,18.89
2023-05-02T06:43:19.917Z,19.22
2023-05-02T06:45:46.539Z,19.62
2023-05-02T06:48:13.327Z,19.59
2023-05-02T06:50:40.150Z,19.54
2023-05-02T06:53:07.073Z,19.60
2023-05-02T06:55:33.647Z,19.33
2023-05-02T06:58:00.637Z,19.15
2023-05-02T07:00:27.351Z,19.01
2023-05-02T07:02:54.100Z,18.86
2023-05-02T07:05:20.827Z,18.93
2023-05-02T07:07:47.404Z,18.98
2023-05-02T07:10:14.022Z,19.35
2023-05-02T07:12:40.579Z,19.08
2023-05-02T07:15:07.491Z,19.43
2023-05-02T07:17:34.238Z,19.28
2023-05-02T07:20:00.932Z,18.88
2023-05-02T07:22:27.745Z,19.01
2023-05-02T07:24:58.503Z,19.10
2023-05-02T07:27:25.423Z,18.91
2023-05-02T07:29:52.065Z,18.43
2023-05-02T07:32:19.726Z,18.75
2023-05-02T07:34:46.309Z,18.64
2023-05-02T07:37:12.829Z,18.63
2023-05-02T07:39:39.314Z,18.83
2023-05-02T07:42:06.536Z,18.96
2023-05-02T07:44:36.731Z,18.90
2023-05-02T07:47:03.290Z,18.77
2023-05-02T07:49:31.265Z,18.87
2023-05-02T07:51:58.131Z,18.55
2023-05-02T07:54:26.388Z,18.36
2023-05-02T07:56:53.069Z,18.14
2023-05-02T07:59:19.584Z,17.38
2023-05-02T08:01:46.158Z,17.75
2023-05-02T08:04:13.074Z,17.87
2023-05-02T08:06:39.977Z,17.80
2023-05-02T08:09:06.648Z,18.18
2023-05-02T08:11:33.387Z,18.71
2023-05-02T08:14:00.099Z,18.78
2023-05-02T08:16:26.715Z,18.81
2023-05-02T08:18:53.514Z,18.71
2023-05-02T08:21:20.141Z,18.68
2023-05-02T08:23:46.838Z,18.77
2023-05-02T08:26:13.462Z,19.05
2023-05-02T08:28:39.970Z,19.46
2023-05-02T08:31:06.614Z,19.59
2023-05-02T08:33:33.394Z,19.60
2023-05-02T08:36:00.229Z,19.73
2023-05-02T08:38:26.987Z,19.73
2023-05-02T08:40:53.530Z,19.50
2023-05-02T08:43:20.733Z,19.09
2023-05-02T08:45:49.740Z,18.66
2023-05-02T08:48:17.239Z,18.50
2023-05-02T08:50:46.572Z,18.77
2023-05-02T08:53:14.489Z,19.09
2023-05-02T08:55:42.184Z,19.38
2023-05-02T08:58:10.702Z,19.54
2023-05-02T09:00:42.319Z,19.35
2023-05-02T09:03:28.672Z,19.50
2023-05-02T09:06:01.132Z,19.62
2023-05-02T09:08:27.676Z,19.67
2023-05-02T09:10:55.199Z,19.83
2023-05-02T09:13:28.509Z,19.88
2023-05-02T09:16:04.249Z,20.02
2023-05-02T09:18:33.343Z,19.93
2023-05-02T09:21:01.129Z,20.20
2023-05-02T09:23:34.653Z,20.67
2023-05-02T09:26:01.722Z,20.37
2023-05-02T09:28:41.173Z,20.07
2023-05-02T09:31:09.900Z,20.06
2023-05-02T09:33:38.465Z,19.97
2023-05-02T09:36:07.173Z,20.29
2023-05-02T09:38:33.920Z,20.70
2023-05-02T09:41:03.416Z,20.53
2023-05-02T09:43:31.743Z,20.51
2023-05-02T09:46:08.042Z,20.86
2023-05-02T09:48:54.270Z,21.10
2023-05-02T09:51:22.118Z,21.16
2023-05-02T09:53:49.576Z,20.77
2023-05-02T09:56:17.157Z,20.46
2023-05-02T09:58:44.162Z,20.48
2023-05-02T10:01:20.394Z,20.42
2023-05-02T10:03:48.847Z,20.45
2023-05-02T10:06:17.378Z,20.30
2023-05-02T10:08:45.518Z,20.57
2023-05-02T10:11:12.949Z,20.75
2023-05-02T10:13:42.776Z,20.87
2023-05-02T10:16:12.330Z,21.09
2023-05-02T10:18:52.573Z,21.11
2023-05-02T10:21:27.265Z,21.14
2023-05-02T10:23:54.199Z,20.56
2023-05-02T10:26:26.157Z,20.81
2023-05-02T10:28:53.807Z,20.97
2023-05-02T10:31:21.478Z,21.38
2023-05-02T10:33:52.337Z,21.47
2023-05-02T10:36:23.300Z,21.85
2023-05-02T10:38:51.113Z,21.70
2023-05-02T10:41:26.319Z,21.40
2023-05-02T10:43:53.306Z,21.37
2023-05-02T10:46:33.091Z,21.29
2023-05-02T10:49:01.673Z,21.36
2023-05-02T10:51:29.768Z,21.15
2023-05-02T10:54:18.975Z,21.36
2023-05-02T10:57:04.182Z,21.66
2023-05-02T10:59:42.528Z,21.50
2023-05-02T11:02:23.336Z,21.44
2023-05-02T11:05:04.194Z,21.54
2023-05-02T11:07:32.562Z,21.44
2023-05-02T11:10:22.357Z,21.83
2023-05-02T11:12:57.527Z,21.61
2023-05-02T11:15:27.694Z,21.57
2023-05-02T11:18:08.043Z,21.75
2023-05-02T11:20:36.208Z,22.09
2023-05-02T11:23:29.116Z,21.89
2023-05-02T11:25:57.150Z,22.05
2023-05-02T11:28:42.009Z,21.90
2023-05-02T11:31:29.654Z,22.25
2023-05-02T11:34:01.159Z,22.42
2023-05-02T11:36:35.504Z,22.67
2023-05-02T11:39:05.690Z,22.35
2023-05-02T11:41:39.864Z,22.65
2023-05-02T11:44:06.635Z,22.59
2023-05-02T11:46:33.617Z,22.37
2023-05-02T11:49:01.148Z,22.09
2023-05-02T11:51:27.962Z,22.39
2023-05-02T11:53:54.829Z,22.57
2023-05-02T11:56:26.414Z,22.54
2023-05-02T11:59:00.829Z,22.71
2023-05-02T12:01:27.887Z,22.89
2023-05-02T12:04:08.550Z,22.82
2023-05-02T12:06:35.343Z,23.29
2023-05-02T12:09:10.647Z,22.94
2023-05-02T12:11:38.525Z,22.91
2023-05-02T12:14:06.773Z,23.09
2023-05-02T12:16:33.996Z,23.39
2023-05-02T12:19:01.321Z,23.79
2023-05-02T12:21:34.906Z,23.32
2023-05-02T12:24:02.351Z,23.13
2023-05-02T12:26:33.570Z,23.22
2023-05-02T12:29:02.558Z,23.10
2023-05-02T12:31:31.202Z,23.13
2023-05-02T12:34:00.137Z,23.43
2023-05-02T12:36:30.870Z,23.34
2023-05-02T12:38:59.690Z,23.43
2023-05-02T12:41:37.351Z,23.48
2023-05-02T12:44:05.530Z,23.45
2023-05-02T12:46:32.759Z,23.72
2023-05-02T12:49:08.252Z,24.28
2023-05-02T12:51:36.353Z,23.82
2023-05-02T12:54:03.901Z,24.06
2023-05-02T12:56:33.382Z,23.81
2023-05-02T12:59:01.322Z,23.90
2023-05-02T13:01:28.700Z,23.94
2023-05-02T13:03:55.549Z,24.39
2023-05-02T13:06:22.247Z,24.47
2023-05-02T13:08:48.858Z,23.66
2023-05-02T13:11:15.766Z,23.71
2023-05-02T13:13:42.241Z,23.49
2023-05-02T13:16:09.000Z,23.71
2023-05-02T13:18:35.970Z,23.03
2023-05-02T13:21:02.540Z,23.05
2023-05-02T13:23:29.030Z,22.99
2023-05-02T13:25:55.642Z,23.01
2023-05-02T13:28:22.152Z,22.89
2023-05-02T13:30:48.749Z,22.74
2023-05-02T13:33:15.560Z,23.01
2023-05-02T13:35:42.310Z,22.91
2023-05-02T13:38:08.799Z,23.08
2023-05-02T13:40:35.652Z,23.18
2023-05-02T13:43:02.175Z,23.13
2023-05-02T13:45:28.846Z,23.13
2023-05-02T13:47:55.654Z,23.17
2023-05-02T13:50:23.070Z,22.44
2023-05-02T13:52:49.707Z,22.86
2023-05-02T13:55:16.399Z,23.28
2023-05-02T13:57:43.488Z,23.77
2023-05-02T14:00:10.768Z,23.22
2023-05-02T14:02:39.008Z,23.18
2023-05-02T14:05:06.357Z,23.04
2023-05-02T14:07:32.904Z,23.41
2023-05-02T14:09:59.780Z,23.25
2023-05-02T14:12:26.648Z,23.13
2023-05-02T14:14:53.481Z,23.27
2023-05-02T14:17:19.975Z,23.30
2023-05-02T14:19:46.722Z,23.18
2023-05-02T14:22:13.252Z,23.93
2023-05-02T14:24:39.828Z,23.60
2023-05-02T14:27:07.605Z,23.46
2023-05-02T14:29:34.258Z,23.47
2023-05-02T14:32:00.939Z,23.61
2023-05-02T14:34:27.736Z,23.70
2023-05-02T14:36:54.288Z,23.72
2023-05-02T14:39:21.101Z,23.59
2023-05-02T14:41:48.007Z,23.64
2023-05-02T14:44:14.804Z,23.40
2023-05-02T14:46:42.217Z,23.63
2023-05-02T14:49:09.315Z,23.97
2023-05-02T14:51:39.476Z,23.72
2023-05-02T14:54:07.043Z,24.12
2023-05-02T14:56:33.657Z,24.04
2023-05-02T14:59:00.380Z,24.15
2023-05-02T15:01:27.077Z,23.98
2023-05-02T15:04:06.166Z,24.16
2023-05-02T15:06:35.618Z,24.18
2023-05-02T15:09:02.844Z,24.19
2023-05-02T15:11:29.414Z,23.68
2023-05-02T15:13:58.882Z,23.75
2023-05-02T15:16:26.886Z,23.70
2023-05-02T15:18:53.890Z,23.71
2023-05-02T15:21:20.852Z,24.01
2023-05-02T15:23:47.522Z,24.13
2023-05-02T15:26:14.476Z,24.30
2023-05-02T15:28:41.430Z,24.28
2023-05-02T15:31:08.180Z,23.88
2023-05-02T15:33:34.796Z,24.42
2023-05-02T15:36:01.460Z,23.97
2023-05-02T15:38:28.053Z,23.86
2023-05-02T15:40:59.285Z,23.96
2023-05-02T15:43:27.256Z,24.13
2023-05-02T15:45:57.031Z,23.92
2023-05-02T15:48:27.540Z,23.47
2023-05-02T15:50:54.341Z,23.14
2023-05-02T15:53:24.348Z,23.41
2023-05-02T15:55:52.025Z,23.61
2023-05-02T15:58:19.309Z,23.37
2023-05-02T16:00:47.444Z,23.21
2023-05-02T16:03:14.321Z,23.15
2023-05-02T16:05:41.131Z,23.79
2023-05-02T16:08:07.697Z,24.06
2023-05-02T16:10:36.732Z,24.05
2023-05-02T16:13:03.567Z,24.12
2023-05-02T16:15:30.457Z,24.16
2023-05-02T16:17:57.317Z,23.73
2023-05-02T16:20:24.090Z,23.65
2023-05-02T16:22:51.321Z,23.70
2023-05-02T16:25:21.107Z,24.21
2023-05-02T16:27:47.789Z,24.25
2023-05-02T16:30:14.414Z,24.58
2023-05-02T16:32:41.112Z,24.52
2023-05-02T16:35:10.730Z,24.63
2023-05-02T16:37:37.716Z,24.61
2023-05-02T16:40:06.035Z,25.16
2023-05-02T16:42:33.283Z,23.87
2023-05-02T16:45:00.073Z,23.29
2023-05-02T16:47:27.971Z,23.64
2023-05-02T16:49:58.988Z,23.75
2023-05-02T16:52:26.400Z,24.04
2023-05-02T16:54:53.560Z,24.66
2023-05-02T16:57:21.395Z,25.25
2023-05-02T16:59:49.623Z,25.27
2023-05-02T17:02:16.824Z,25.56
2023-05-02T17:04:43.783Z,25.75
2023-05-02T17:07:13.161Z,24.99
2023-05-02T17:09:41.501Z,24.70
2023-05-02T17:12:12.415Z,25.09
2023-05-02T17:14:41.052Z,25.03
2023-05-02T17:17:08.352Z,24.52
2023-05-02T17:19:36.072Z,24.66
2023-05-02T17:22:04.790Z,24.57
2023-05-02T17:24:31.459Z,24.45
2023-05-02T17:26:58.109Z,24.30
2023-05-02T17:29:25.520Z,24.16
2023-05-02T17:31:52.192Z,23.95
2023-05-02T17:34:18.934Z,23.97
2023-05-02T17:36:46.308Z,23.98
2023-05-02T17:39:13.448Z,24.10
2023-05-02T17:41:40.175Z,24.19
2023-05-02T17:44:07.032Z,24.54
2023-05-02T17:46:33.775Z,24.52
2023-05-02T17:49:00.811Z,24.39
2023-05-02T17:51:27.879Z,24.28
2023-05-02T17:53:54.709Z,23.71
2023-05-02T17:56:21.293Z,23.76
2023-05-02T17:58:47.963Z,23.77
2023-05-02T18:01:14.576Z,23.86
2023-05-02T18:03:41.729Z,23.38
2023-05-02T18:06:08.842Z,23.39
2023-05-02T18:08:35.717Z,23.22
2023-05-02T18:11:03.319Z,23.07
2023-05-02T18:13:30.093Z,23.40
2023-05-02T18:15:57.037Z,23.45
2023-05-02T18:18:24.164Z,23.26
2023-05-02T18:20:50.761Z,23.06
2023-05-02T18:23:17.431Z,22.98
2023-05-02T18:25:44.345Z,22.88
2023-05-02T18:28:11.552Z,22.77
2023-05-02T18:30:38.487Z,22.64
2023-05-02T18:33:06.489Z,22.38
2023-05-02T18:35:33.453Z,22.35
2023-05-02T18:38:00.119Z,22.28
2023-05-02T18:40:27.208Z,22.27
2023-05-02T18:42:53.821Z,22.14
2023-05-02T18:45:20.988Z,21.95
2023-05-02T18:47:47.721Z,21.96
2023-05-02T18:50:14.275Z,21.89
2023-05-02T18:52:40.839Z,21.76
2023-05-02T18:55:07.784Z,21.62
2023-05-02T18:57:34.443Z,21.67
2023-05-02T19:00:01.104Z,21.64
2023-05-02T19:02:28.190Z,21.45
2023-05-02T19:04:55.283Z,21.28
2023-05-02T19:07:21.800Z,21.33
2023-05-02T19:09:48.301Z,21.17
2023-05-02T19:12:14.938Z,21.15
2023-05-02T19:14:41.994Z,21.17
2023-05-02T19:17:08.548Z,21.12
2023-05-02T19:19:35.202Z,21.03
2023-05-02T19:22:01.814Z,20.89
2023-05-02T19:24:28.341Z,20.55
2023-05-02T19:26:55.086Z,20.63
2023-05-02T19:29:21.806Z,20.64
2023-05-02T19:31:48.903Z,20.53
2023-05-02T19:34:15.863Z,20.74
2023-05-02T19:36:42.596Z,20.81
2023-05-02T19:39:10.582Z,20.79
2023-05-02T19:41:38.298Z,20.60
2023-05-02T19:44:05.016Z,20.45
2023-05-02T19:46:32.010Z,20.39
2023-05-02T19:48:58.974Z,20.20
2023-05-02T19:51:27.878Z,20.24
2023-05-02T19:53:54.659Z,20.37
2023-05-02T19:56:21.550Z,20.46
2023-05-02T19:58:48.087Z,20.14
2023-05-02T20:01:14.854Z,20.11
2023-05-02T20:03:41.644Z,20.07
2023-05-02T20:06:08.512Z,19.91
2023-05-02T20:08:35.381Z,19.57
2023-05-02T20:11:02.166Z,19.64
2023-05-02T20:13:28.685Z,19.80
2023-05-02T20:15:55.445Z,19.70
2023-05-02T20:18:22.010Z,19.61
2023-05-02T20:20:48.564Z,19.88
2023-05-02T20:23:15.878Z,19.78
2023-05-02T20:25:43.100Z,19.76
2023-05-02T20:28:09.933Z,19.75
2023-05-02T20:30:36.610Z,19.62
2023-05-02T20:33:13.860Z,19.67
2023-05-02T20:35:42.464Z,19.51
2023-05-02T20:38:09.703Z,19.59
2023-05-02T20:40:39.319Z,19.53
2023-05-02T20:43:06.410Z,19.66
2023-05-02T20:45:33.416Z,19.65
2023-05-02T20:48:00.080Z,19.66
2023-05-02T20:50:26.991Z,19.32
2023-05-02T20:52:54.240Z,19.09
2023-05-02T20:55:22.644Z,18.99
2023-05-02T20:57:52.878Z,19.15
2023-05-02T21:00:22.589Z,19.29
2023-05-02T21:02:49.463Z,19.19
2023-05-02T21:05:16.391Z,19.21
2023-05-02T21:07:42.950Z,19.34
2023-05-02T21:10:10.715Z,19.05
2023-05-02T21:12:37.239Z,19.03
2023-05-02T21:15:04.248Z,18.82
2023-05-02T21:17:30.808Z,18.90
2023-05-02T21:19:57.389Z,18.39
2023-05-02T21:22:23.888Z,17.98
2023-05-02T21:24:50.784Z,18.14
2023-05-02T21:27:17.379Z,18.34
2023-05-02T21:29:43.973Z,18.37
2023-05-02T21:32:10.722Z,18.64
2023-05-02T21:34:37.364Z,18.81
2023-05-02T21:37:04.070Z,18.81
2023-05-02T21:39:30.621Z,18.61
2023-05-02T21:41:57.225Z,18.50
2023-05-02T21:44:23.833Z,18.35
2023-05-02T21:46:51.292Z,18.58
2023-05-02T21:49:17.914Z,18.61
2023-05-02T21:51:44.461Z,18.73
2023-05-02T21:54:11.036Z,18.71
2023-05-02T21:56:37.692Z,18.78
2023-05-02T21:59:04.220Z,18.61
2023-05-02T22:01:30.811Z,18.54
2023-05-02T22:03:58.125Z,17.97
2023-05-02T22:06:25.076Z,17.84
2023-05-02T22:08:52.135Z,17.52
2023-05-02T22:11:21.537Z,17.59
2023-05-02T22:13:48.383Z,17.60
2023-05-02T22:16:15.793Z,17.25
2023-05-02T22:18:44.686Z,17.16
2023-05-02T22:21:12.033Z,17.11
2023-05-02T22:23:38.787Z,17.00
2023-05-02T22:26:05.387Z,16.78
2023-05-02T22:28:31.947Z,16.83
2023-05-02T22:30:58.429Z,17.06
2023-05-02T22:33:25.235Z,16.72
2023-05-02T22:35:51.822Z,16.55
2023-05-02T22:38:19.552Z,16.65
2023-05-02T22:40:46.499Z,16.90
2023-05-02T22:43:13.345Z,16.99
2023-05-02T22:45:40.540Z,16.73
2023-05-02T22:48:07.956Z,16.44
2023-05-02T22:50:34.491Z,16.31
2023-05-02T22:53:03.788Z,16.29
2023-05-02T22:55:30.602Z,16.21
2023-05-02T22:57:57.982Z,16.18
2023-05-02T23:00:25.121Z,16.32
2023-05-02T23:02:51.970Z,16.19
2023-05-02T23:05:18.865Z,16.08
2023-05-02T23:07:45.741Z,16.29
2023-05-02T23:10:12.269Z,16.41
2023-05-02T23:12:39.159Z,16.47
2023-05-02T23:15:06.905Z,16.33
2023-05-02T23:17:37.213Z,16.46
2023-05-02T23:20:05.226Z,16.48
2023-05-02T23:22:35.942Z,16.48
2023-05-02T23:25:03.052Z,16.54
2023-05-02T23:27:29.738Z,16.61
2023-05-02T23:29:56.296Z,16.57
2023-05-02T23:32:23.887Z,16.28
2023-05-02T23:34:50.736Z,16.46
2023-05-02T23:37:17.347Z,16.63
2023-05-02T23:39:43.924Z,16.63
2023-05-02T23:42:10.469Z,16.66
2023-05-02T23:44:37.053Z,16.48
2023-05-02T23:47:03.757Z,16.32
2023-05-02T23:49:30.468Z,16.26
2023-05-02T23:51:57.033Z,16.09
2023-05-02T23:54:23.806Z,15.85
2023-05-02T23:56:50.393Z,16.10
2023-05-02T23:59:17.006Z,16.20
